createdAt,value
2023-03-16T00:02:20.649Z,46.77
2023-03-16T00:04:48.396Z,46.99
2023-03-16T00:07:15.844Z,46.23
2023-03-16T00:09:43.386Z,45.93
2023-03-16T00:12:19.719Z,46.82
2023-03-16T00:14:48.418Z,46.05
2023-03-16T00:17:19.428Z,46.97
2023-03-16T00:19:54.973Z,45.50
2023-03-16T00:22:29.436Z,45.62
2023-03-16T00:24:56.949Z,45.74
2023-03-16T00:27:25.810Z,45.29
2023-03-16T00:29:57.186Z,47.14
2023-03-16T00:32:28.389Z,46.16
2023-03-16T00:34:56.239Z,46.77
2023-03-16T00:37:24.905Z,46.77
2023-03-16T00:39:56.212Z,45.81
2023-03-16T00:42:27.594Z,46.29
2023-03-16T00:44:57.730Z,46.82
2023-03-16T00:47:28.503Z,46.45
2023-03-16T00:49:56.458Z,46.52
2023-03-16T00:52:24.742Z,46.67
2023-03-16T00:54:53.133Z,47.27
2023-03-16T00:57:23.134Z,46.85
2023-03-16T00:59:50.965Z,46.71
2023-03-16T01:02:20.039Z,46.34
2023-03-16T01:04:49.652Z,48.13
2023-03-16T01:07:17.081Z,48.26
2023-03-16T01:09:44.551Z,48.50
2023-03-16T01:12:15.972Z,47.50
2023-03-16T01:14:47.870Z,47.72
2023-03-16T01:17:17.665Z,47.39
2023-03-16T01:19:45.926Z,47.03
2023-03-16T01:22:13.992Z,47.49
2023-03-16T01:24:42.861Z,46.66
2023-03-16T01:27:10.267Z,47.98
2023-03-16T01:29:38.500Z,47.33
2023-03-16T01:32:07.291Z,47.81
2023-03-16T01:34:35.221Z,47.39
2023-03-16T01:37:02.952Z,47.29
2023-03-16T01:39:30.820Z,46.88
2023-03-16T01:41:58.283Z,47.90
2023-03-16T01:44:36.080Z,47.52
2023-03-16T01:47:04.034Z,48.89
2023-03-16T01:49:36.750Z,47.09
2023-03-16T01:52:12.653Z,46.54
2023-03-16T01:54:45.118Z,47.52
2023-03-16T01:57:15.665Z,47.90
2023-03-16T02:00:12.180Z,47.64
2023-03-16T02:02:43.723Z,46.94
2023-03-16T02:05:17.963Z,47.31
2023-03-16T02:07:50.045Z,47.12
2023-03-16T02:10:19.739Z,45.84
2023-03-16T02:12:47.441Z,46.93
2023-03-16T02:15:15.287Z,46.91
2023-03-16T02:17:44.367Z,47.20
2023-03-16T02:20:16.272Z,46.70
2023-03-16T02:22:49.694Z,46.82
2023-03-16T02:25:18.694Z,47.51
2023-03-16T02:28:17.622Z,48.62
2023-03-16T02:30:47.075Z,48.04
2023-03-16T02:33:16.616Z,47.70
2023-03-16T02:35:44.541Z,47.30
2023-03-16T02:38:11.962Z,47.33
2023-03-16T02:40:43.874Z,47.67
2023-03-16T02:43:15.265Z,48.71
2023-03-16T02:45:51.295Z,47.92
2023-03-16T02:48:46.820Z,48.17
2023-03-16T02:51:14.714Z,47.53
2023-03-16T02:53:42.488Z,47.58
2023-03-16T02:56:10.044Z,49.33
2023-03-16T02:58:37.956Z,48.63
2023-03-16T03:01:06.279Z,49.12
2023-03-16T03:03:34.647Z,49.36
2023-03-16T03:06:03.206Z,48.44
2023-03-16T03:08:32.816Z,49.44
2023-03-16T03:11:00.410Z,50.24
2023-03-16T03:13:28.131Z,49.79
2023-03-16T03:15:55.661Z,51.04
2023-03-16T03:18:25.272Z,49.75
2023-03-16T03:20:53.747Z,50.12
2023-03-16T03:23:21.171Z,50.23
2023-03-16T03:25:48.548Z,50.71
2023-03-16T03:28:16.516Z,49.58
2023-03-16T03:30:45.278Z,49.86
2023-03-16T03:33:13.031Z,51.05
2023-03-16T03:35:42.136Z,51.42
2023-03-16T03:38:10.041Z,50.99
2023-03-16T03:40:37.764Z,50.99
2023-03-16T03:43:06.413Z,51.16
2023-03-16T03:45:34.709Z,52.53
2023-03-16T03:48:02.221Z,51.12
2023-03-16T03:50:30.218Z,50.78
2023-03-16T03:52:58.036Z,50.46
2023-03-16T03:55:25.940Z,51.20
2023-03-16T03:57:53.631Z,52.52
2023-03-16T04:00:22.032Z,51.95
2023-03-16T04:02:50.131Z,51.41
2023-03-16T04:05:17.978Z,50.53
2023-03-16T04:07:45.967Z,51.09
2023-03-16T04:10:14.539Z,50.33
2023-03-16T04:12:42.012Z,50.62
2023-03-16T04:15:11.151Z,49.11
2023-03-16T04:17:39.988Z,50.74
2023-03-16T04:20:14.388Z,50.71
2023-03-16T04:22:42.818Z,51.18
2023-03-16T04:25:11.650Z,52.07
2023-03-16T04:27:39.361Z,51.54
2023-03-16T04:30:12.049Z,53.25
2023-03-16T04:32:41.678Z,52.18
2023-03-16T04:35:10.811Z,52.36
2023-03-16T04:37:39.351Z,50.91
2023-03-16T04:40:16.234Z,51.82
2023-03-16T04:42:45.947Z,52.37
2023-03-16T04:45:15.769Z,52.08
2023-03-16T04:47:43.695Z,52.03
2023-03-16T04:50:12.284Z,50.59
2023-03-16T04:52:41.231Z,52.19
2023-03-16T04:55:09.085Z,54.01
2023-03-16T04:57:37.691Z,53.87
2023-03-16T05:00:11.807Z,53.58
2023-03-16T05:02:40.187Z,53.58
2023-03-16T05:05:08.058Z,54.12
2023-03-16T05:07:36.147Z,52.75
2023-03-16T05:10:04.072Z,52.50
2023-03-16T05:12:31.532Z,52.91
2023-03-16T05:14:59.492Z,53.35
2023-03-16T05:17:27.808Z,53.36
2023-03-16T05:19:55.463Z,53.57
2023-03-16T05:22:23.563Z,53.68
2023-03-16T05:24:53.477Z,52.13
2023-03-16T05:27:21.651Z,53.47
2023-03-16T05:29:49.139Z,52.21
2023-03-16T05:32:17.187Z,54.10
2023-03-16T05:34:46.135Z,52.18
2023-03-16T05:37:13.605Z,52.23
2023-03-16T05:39:41.310Z,50.19
2023-03-16T05:42:08.800Z,50.89
2023-03-16T05:44:37.428Z,51.60
2023-03-16T05:47:05.397Z,51.21
2023-03-16T05:49:33.764Z,53.19
2023-03-16T05:52:01.483Z,53.08
2023-03-16T05:54:30.406Z,53.08
2023-03-16T05:56:57.907Z,51.84
2023-03-16T05:59:25.582Z,52.61
2023-03-16T06:01:53.582Z,51.98
2023-03-16T06:04:21.878Z,51.42
2023-03-16T06:06:49.472Z,51.29
2023-03-16T06:09:17.309Z,53.12
2023-03-16T06:11:45.042Z,53.47
2023-03-16T06:14:14.621Z,52.60
2023-03-16T06:16:42.344Z,53.56
2023-03-16T06:19:11.161Z,52.83
2023-03-16T06:21:39.053Z,52.12
2023-03-16T06:24:09.216Z,51.10
2023-03-16T06:26:37.358Z,52.44
2023-03-16T06:29:05.876Z,51.99
2023-03-16T06:31:34.230Z,53.83
2023-03-16T06:34:02.698Z,52.81
2023-03-16T06:36:30.760Z,51.99
2023-03-16T06:38:58.629Z,52.02
2023-03-16T06:41:26.501Z,51.85
2023-03-16T06:43:54.272Z,51.74
2023-03-16T06:46:21.775Z,52.63
2023-03-16T06:48:49.537Z,52.17
2023-03-16T06:51:17.305Z,51.09
2023-03-16T06:53:45.442Z,52.19
2023-03-16T06:56:13.664Z,50.68
2023-03-16T06:58:41.824Z,50.28
2023-03-16T07:01:09.428Z,50.90
2023-03-16T07:03:37.298Z,51.95
2023-03-16T07:06:06.102Z,50.40
2023-03-16T07:08:33.561Z,50.35
2023-03-16T07:11:01.539Z,50.45
2023-03-16T07:13:30.193Z,50.43
2023-03-16T07:15:58.088Z,50.16
2023-03-16T07:18:26.246Z,50.26
2023-03-16T07:20:54.797Z,50.10
2023-03-16T07:23:24.852Z,50.60
2023-03-16T07:25:53.391Z,50.08
2023-03-16T07:28:21.170Z,50.82
2023-03-16T07:31:02.967Z,50.60
2023-03-16T07:33:33.813Z,50.52
2023-03-16T07:36:04.547Z,49.43
2023-03-16T07:38:34.042Z,49.24
2023-03-16T07:41:02.512Z,48.41
2023-03-16T07:43:29.950Z,47.63
2023-03-16T07:45:57.701Z,49.01
2023-03-16T07:48:26.061Z,49.64
2023-03-16T07:50:54.271Z,50.20
2023-03-16T07:53:22.733Z,48.68
2023-03-16T07:55:50.921Z,48.84
2023-03-16T07:58:18.495Z,48.38
2023-03-16T08:00:46.425Z,48.08
2023-03-16T08:03:14.189Z,48.97
2023-03-16T08:05:41.785Z,48.29
2023-03-16T08:08:12.036Z,48.35
2023-03-16T08:10:39.896Z,48.07
2023-03-16T08:13:08.357Z,48.36
2023-03-16T08:15:36.301Z,48.07
2023-03-16T08:18:04.288Z,46.21
2023-03-16T08:20:32.148Z,44.97
2023-03-16T08:22:59.912Z,45.65
2023-03-16T08:25:28.100Z,45.77
2023-03-16T08:27:58.271Z,44.35
2023-03-16T08:30:27.104Z,45.00
2023-03-16T08:32:55.490Z,45.41
2023-03-16T08:35:23.228Z,44.66
2023-03-16T08:37:50.846Z,44.88
2023-03-16T08:40:18.963Z,42.71
2023-03-16T08:42:50.087Z,43.15
2023-03-16T08:45:20.003Z,42.55
2023-03-16T08:47:47.499Z,42.97
2023-03-16T08:50:15.891Z,43.54
2023-03-16T08:52:43.653Z,43.20
2023-03-16T08:55:11.357Z,41.63
2023-03-16T08:57:39.448Z,41.58
2023-03-16T09:00:14.907Z,41.91
2023-03-16T09:02:44.690Z,42.03
2023-03-16T09:05:14.987Z,41.04
2023-03-16T09:07:42.504Z,41.36
2023-03-16T09:10:13.454Z,41.46
2023-03-16T09:12:41.218Z,41.58
2023-03-16T09:15:10.327Z,41.91
2023-03-16T09:17:39.922Z,39.66
2023-03-16T09:20:21.788Z,39.79
2023-03-16T09:22:58.784Z,38.28
2023-03-16T09:25:26.552Z,37.71
2023-03-16T09:27:54.128Z,38.05
2023-03-16T09:30:21.621Z,37.33
2023-03-16T09:32:50.514Z,36.79
2023-03-16T09:35:18.099Z,36.08
2023-03-16T09:38:01.101Z,36.93
2023-03-16T09:40:33.456Z,36.84
2023-03-16T09:43:07.226Z,35.67
2023-03-16T09:46:02.110Z,34.42
2023-03-16T09:48:30.899Z,32.31
2023-03-16T09:51:00.018Z,33.40
2023-03-16T09:53:32.550Z,34.15
2023-03-16T09:56:06.115Z,35.19
2023-03-16T09:58:34.149Z,33.72
2023-03-16T10:01:28.744Z,33.26
2023-03-16T10:04:13.404Z,33.77
2023-03-16T10:07:10.102Z,36.42
2023-03-16T10:09:41.529Z,34.15
2023-03-16T10:12:09.940Z,33.92
2023-03-16T10:14:45.224Z,33.61
2023-03-16T10:17:28.141Z,33.50
2023-03-16T10:19:58.137Z,34.02
2023-03-16T10:22:37.829Z,35.47
2023-03-16T10:25:24.435Z,35.92
2023-03-16T10:27:52.294Z,34.68
2023-03-16T10:30:19.900Z,34.46
2023-03-16T10:32:48.281Z,33.05
2023-03-16T10:35:28.417Z,34.01
2023-03-16T10:37:57.228Z,34.72
2023-03-16T10:40:24.683Z,34.67
2023-03-16T10:42:52.251Z,34.30
2023-03-16T10:45:25.388Z,34.27
2023-03-16T10:47:52.863Z,34.66
2023-03-16T10:50:25.427Z,33.56
2023-03-16T10:52:56.605Z,34.27
2023-03-16T10:55:32.561Z,33.51
2023-03-16T10:58:01.328Z,33.12
2023-03-16T11:00:43.287Z,33.45
2023-03-16T11:03:28.864Z,31.10
2023-03-16T11:06:02.199Z,31.75
2023-03-16T11:08:34.915Z,31.44
2023-03-16T11:11:09.958Z,31.82
2023-03-16T11:13:38.706Z,30.08
2023-03-16T11:16:39.738Z,30.94
2023-03-16T11:19:29.785Z,30.51
2023-03-16T11:22:19.005Z,28.80
2023-03-16T11:24:54.140Z,29.42
2023-03-16T11:27:26.334Z,29.65
2023-03-16T11:30:01.683Z,28.62
2023-03-16T11:32:36.692Z,30.44
2023-03-16T11:35:22.372Z,28.21
2023-03-16T11:38:14.613Z,28.14
2023-03-16T11:40:50.851Z,27.18
2023-03-16T11:43:42.586Z,27.63
2023-03-16T11:46:11.782Z,27.25
2023-03-16T11:49:01.437Z,28.02
2023-03-16T11:51:28.814Z,27.07
2023-03-16T11:54:07.893Z,27.65
2023-03-16T11:56:40.587Z,26.42
2023-03-16T11:59:22.164Z,27.01
2023-03-16T12:02:15.323Z,25.65
2023-03-16T12:05:22.354Z,27.17
2023-03-16T12:08:24.612Z,25.48
2023-03-16T12:11:10.148Z,24.79
2023-03-16T12:14:00.401Z,24.76
2023-03-16T12:16:48.282Z,24.85
2023-03-16T12:19:45.930Z,25.11
2023-03-16T12:22:13.647Z,23.19
2023-03-16T12:24:43.753Z,24.29
2023-03-16T12:27:17.726Z,23.70
2023-03-16T12:29:55.767Z,24.59
2023-03-16T12:32:40.264Z,24.57
2023-03-16T12:35:19.743Z,24.33
2023-03-16T12:37:50.265Z,23.92
2023-03-16T12:40:41.592Z,23.72
2023-03-16T12:43:12.080Z,23.64
2023-03-16T12:45:53.726Z,23.68
2023-03-16T12:48:27.818Z,23.39
2023-03-16T12:51:00.925Z,23.96
2023-03-16T12:53:52.031Z,22.65
2023-03-16T12:56:26.766Z,23.29
2023-03-16T12:58:56.951Z,24.05
2023-03-16T13:01:38.186Z,24.53
2023-03-16T13:04:14.263Z,24.67
2023-03-16T13:06:49.477Z,23.60
2023-03-16T13:09:22.061Z,24.15
2023-03-16T13:11:50.308Z,24.50
2023-03-16T13:14:34.483Z,22.95
2023-03-16T13:17:16.909Z,23.29
2023-03-16T13:19:46.697Z,24.06
2023-03-16T13:22:17.315Z,22.34
2023-03-16T13:25:10.417Z,22.09
2023-03-16T13:27:39.644Z,22.23
2023-03-16T13:30:33.784Z,21.86
2023-03-16T13:33:21.821Z,23.42
2023-03-16T13:35:51.254Z,23.59
2023-03-16T13:38:28.802Z,23.08
2023-03-16T13:41:01.929Z,23.27
2023-03-16T13:43:32.823Z,23.14
2023-03-16T13:46:00.297Z,23.18
2023-03-16T13:48:27.813Z,22.68
2023-03-16T13:50:59.599Z,23.30
2023-03-16T13:53:32.894Z,23.09
2023-03-16T13:56:04.402Z,23.45
2023-03-16T13:58:35.652Z,23.06
2023-03-16T14:01:05.587Z,22.71
2023-03-16T14:03:38.616Z,23.19
2023-03-16T14:06:07.304Z,23.03
2023-03-16T14:08:35.070Z,23.41
2023-03-16T14:11:03.775Z,22.19
2023-03-16T14:13:36.173Z,22.32
2023-03-16T14:16:13.952Z,22.25
2023-03-16T14:18:52.099Z,22.26
2023-03-16T14:21:23.280Z,21.69
2023-03-16T14:23:57.451Z,22.48
2023-03-16T14:26:25.645Z,21.44
2023-03-16T14:29:16.117Z,22.42
2023-03-16T14:31:44.870Z,22.07
2023-03-16T14:34:39.522Z,21.73
2023-03-16T14:37:17.618Z,22.13
2023-03-16T14:39:46.585Z,23.51
2023-03-16T14:42:19.923Z,22.61
2023-03-16T14:44:48.209Z,22.97
2023-03-16T14:47:22.967Z,22.98
2023-03-16T14:49:51.023Z,22.16
2023-03-16T14:52:25.548Z,23.24
2023-03-16T14:54:55.077Z,22.53
2023-03-16T14:57:22.975Z,23.24
2023-03-16T14:59:50.483Z,22.78
2023-03-16T15:02:21.356Z,23.07
2023-03-16T15:04:49.593Z,23.79
2023-03-16T15:07:23.944Z,23.10
2023-03-16T15:09:53.868Z,22.79
2023-03-16T15:12:24.330Z,23.13
2023-03-16T15:15:10.827Z,23.79
2023-03-16T15:17:38.924Z,23.34
2023-03-16T15:20:07.366Z,23.78
2023-03-16T15:22:37.713Z,23.85
2023-03-16T15:25:36.277Z,23.59
2023-03-16T15:28:11.858Z,22.92
2023-03-16T15:30:40.385Z,23.62
2023-03-16T15:33:09.999Z,23.36
2023-03-16T15:35:37.871Z,23.52
2023-03-16T15:38:11.578Z,23.62
2023-03-16T15:40:39.981Z,23.21
2023-03-16T15:43:12.785Z,24.16
2023-03-16T15:45:40.587Z,23.97
2023-03-16T15:48:10.451Z,24.41
2023-03-16T15:50:39.808Z,24.17
2023-03-16T15:53:30.022Z,23.92
2023-03-16T15:56:10.217Z,24.68
2023-03-16T15:58:41.907Z,24.74
2023-03-16T16:01:27.004Z,24.70
2023-03-16T16:03:56.001Z,23.14
2023-03-16T16:06:24.396Z,23.19
2023-03-16T16:08:52.372Z,24.17
2023-03-16T16:11:29.338Z,24.25
2023-03-16T16:13:57.884Z,24.05
2023-03-16T16:16:29.571Z,23.94
2023-03-16T16:18:57.063Z,23.49
2023-03-16T16:21:29.006Z,24.06
2023-03-16T16:23:56.865Z,24.24
2023-03-16T16:26:29.560Z,24.51
2023-03-16T16:28:59.501Z,26.78
2023-03-16T16:31:28.878Z,25.78
2023-03-16T16:33:57.020Z,26.43
2023-03-16T16:36:25.324Z,25.16
2023-03-16T16:38:56.520Z,25.51
2023-03-16T16:41:27.793Z,25.08
2023-03-16T16:43:56.575Z,26.41
2023-03-16T16:46:27.347Z,25.89
2023-03-16T16:49:01.794Z,26.86
2023-03-16T16:51:30.255Z,28.84
2023-03-16T16:53:59.310Z,28.50
2023-03-16T16:56:29.190Z,29.08
2023-03-16T16:58:57.733Z,29.01
2023-03-16T17:01:33.403Z,30.33
2023-03-16T17:04:02.554Z,30.83
2023-03-16T17:06:30.963Z,30.37
2023-03-16T17:08:58.544Z,32.25
2023-03-16T17:11:30.095Z,31.32
2023-03-16T17:13:59.625Z,31.49
2023-03-16T17:16:32.877Z,31.51
2023-03-16T17:19:01.797Z,31.61
2023-03-16T17:21:31.207Z,31.81
2023-03-16T17:24:00.408Z,32.23
2023-03-16T17:26:34.449Z,31.71
2023-03-16T17:29:06.422Z,32.34
2023-03-16T17:31:39.671Z,32.43
2023-03-16T17:34:16.779Z,32.88
2023-03-16T17:36:46.966Z,32.94
2023-03-16T17:39:21.166Z,33.23
2023-03-16T17:41:59.675Z,33.11
2023-03-16T17:44:32.660Z,32.65
2023-03-16T17:47:01.452Z,32.78
2023-03-16T17:49:30.822Z,34.31
2023-03-16T17:51:59.085Z,34.73
2023-03-16T17:54:28.912Z,35.11
2023-03-16T17:57:00.414Z,34.78
2023-03-16T17:59:31.562Z,34.30
2023-03-16T18:02:00.310Z,34.19
2023-03-16T18:04:30.391Z,34.29
2023-03-16T18:06:58.840Z,34.80
2023-03-16T18:09:29.223Z,34.48
2023-03-16T18:11:58.223Z,35.04
2023-03-16T18:14:35.984Z,34.40
2023-03-16T18:17:31.397Z,34.43
2023-03-16T18:20:00.924Z,34.80
2023-03-16T18:22:32.839Z,35.22
2023-03-16T18:25:23.397Z,35.58
2023-03-16T18:27:52.533Z,35.53
2023-03-16T18:30:22.189Z,35.36
2023-03-16T18:32:52.467Z,35.68
2023-03-16T18:35:21.936Z,35.70
2023-03-16T18:37:53.480Z,35.16
2023-03-16T18:40:27.239Z,35.06
2023-03-16T18:42:56.274Z,36.17
2023-03-16T18:45:26.532Z,35.57
2023-03-16T18:47:57.143Z,35.72
2023-03-16T18:50:31.384Z,35.83
2023-03-16T18:53:00.016Z,36.07
2023-03-16T18:55:29.685Z,35.61
2023-03-16T18:57:59.211Z,36.22
2023-03-16T19:00:30.462Z,36.41
2023-03-16T19:03:03.675Z,36.57
2023-03-16T19:05:39.776Z,36.52
2023-03-16T19:08:12.167Z,36.50
2023-03-16T19:10:48.187Z,36.64
2023-03-16T19:13:23.373Z,37.00
2023-03-16T19:15:56.710Z,36.94
2023-03-16T19:18:27.796Z,36.52
2023-03-16T19:20:57.431Z,36.14
2023-03-16T19:23:34.313Z,36.65
2023-03-16T19:26:05.245Z,37.83
2023-03-16T19:28:40.115Z,37.42
2023-03-16T19:31:22.652Z,38.04
2023-03-16T19:33:53.940Z,36.81
2023-03-16T19:36:25.360Z,36.90
2023-03-16T19:38:55.259Z,36.84
2023-03-16T19:41:32.449Z,36.23
2023-03-16T19:44:08.826Z,36.61
2023-03-16T19:46:37.680Z,36.29
2023-03-16T19:49:11.946Z,35.54
2023-03-16T19:51:40.987Z,36.30
2023-03-16T19:54:22.492Z,36.29
2023-03-16T19:56:53.014Z,35.80
2023-03-16T19:59:27.960Z,36.09
2023-03-16T20:01:57.447Z,36.03
2023-03-16T20:04:27.900Z,36.46
2023-03-16T20:06:57.799Z,35.77
2023-03-16T20:09:27.886Z,36.34
2023-03-16T20:11:56.819Z,36.03
2023-03-16T20:14:31.190Z,35.79
2023-03-16T20:17:02.119Z,36.64
2023-03-16T20:19:32.159Z,36.19
2023-03-16T20:22:01.553Z,36.58
2023-03-16T20:24:30.400Z,36.71
2023-03-16T20:27:09.435Z,36.04
2023-03-16T20:29:41.812Z,36.51
2023-03-16T20:32:23.071Z,37.13
2023-03-16T20:34:54.691Z,36.75
2023-03-16T20:37:31.345Z,36.28
2023-03-16T20:40:05.218Z,36.18
2023-03-16T20:42:35.398Z,37.20
2023-03-16T20:45:19.957Z,36.96
2023-03-16T20:47:49.435Z,36.95
2023-03-16T20:50:21.610Z,37.22
2023-03-16T20:52:50.603Z,37.06
2023-03-16T20:55:21.843Z,37.52
2023-03-16T20:57:52.047Z,37.20
2023-03-16T21:00:38.251Z,37.19
2023-03-16T21:03:17.600Z,37.08
2023-03-16T21:05:46.556Z,37.36
2023-03-16T21:08:16.728Z,37.41
2023-03-16T21:10:46.412Z,37.70
2023-03-16T21:13:21.675Z,37.64
2023-03-16T21:15:52.645Z,37.90
2023-03-16T21:18:23.013Z,37.45
2023-03-16T21:20:52.097Z,37.93
2023-03-16T21:23:22.614Z,38.28
2023-03-16T21:25:53.436Z,38.02
2023-03-16T21:28:23.295Z,38.29
2023-03-16T21:30:53.429Z,37.88
2023-03-16T21:33:37.617Z,38.20
2023-03-16T21:36:08.243Z,37.75
2023-03-16T21:38:36.678Z,38.12
2023-03-16T21:41:04.353Z,38.43
2023-03-16T21:43:32.172Z,38.30
2023-03-16T21:46:00.026Z,38.30
2023-03-16T21:48:37.125Z,38.82
2023-03-16T21:51:13.586Z,38.65
2023-03-16T21:53:41.155Z,38.61
2023-03-16T21:56:13.035Z,38.60
2023-03-16T21:58:40.505Z,38.09
2023-03-16T22:01:39.448Z,38.52
2023-03-16T22:04:17.381Z,38.45
2023-03-16T22:06:46.005Z,38.18
2023-03-16T22:09:18.737Z,38.08
2023-03-16T22:11:46.205Z,37.86
2023-03-16T22:14:14.004Z,38.25
2023-03-16T22:16:41.596Z,38.62
2023-03-16T22:19:12.153Z,39.24
2023-03-16T22:21:41.979Z,39.14
2023-03-16T22:24:18.732Z,38.86
2023-03-16T22:26:48.888Z,38.84
2023-03-16T22:29:33.429Z,38.68
2023-03-16T22:32:04.288Z,38.57
2023-03-16T22:34:48.720Z,38.76
2023-03-16T22:37:23.123Z,38.80
2023-03-16T22:39:51.137Z,39.10
2023-03-16T22:42:26.990Z,38.85
2023-03-16T22:44:55.435Z,38.70
2023-03-16T22:47:26.168Z,38.73
2023-03-16T22:49:53.955Z,38.60
2023-03-16T22:52:25.264Z,38.86
2023-03-16T22:54:53.073Z,38.97
2023-03-16T22:57:20.594Z,39.86
2023-03-16T22:59:48.397Z,39.95
2023-03-16T23:02:16.292Z,39.94
2023-03-16T23:04:44.477Z,39.51
2023-03-16T23:07:13.532Z,39.85
2023-03-16T23:09:41.377Z,39.23
2023-03-16T23:12:14.954Z,39.95
2023-03-16T23:14:43.381Z,39.86
2023-03-16T23:17:28.957Z,39.69
2023-03-16T23:19:56.640Z,39.82
2023-03-16T23:22:24.034Z,39.85
2023-03-16T23:24:51.408Z,39.59
2023-03-16T23:27:21.962Z,40.03
2023-03-16T23:29:49.567Z,39.92
2023-03-16T23:32:17.235Z,39.95
2023-03-16T23:34:46.386Z,39.85
2023-03-16T23:37:13.856Z,40.01
2023-03-16T23:39:41.250Z,39.86
2023-03-16T23:42:09.197Z,39.93
2023-03-16T23:44:36.587Z,39.81
2023-03-16T23:47:04.016Z,40.01
2023-03-16T23:49:35.853Z,40.09
2023-03-16T23:52:03.949Z,39.49
2023-03-16T23:54:32.679Z,40.63
2023-03-16T23:57:00.127Z,40.39
2023-03-16T23:59:27.834Z,40.46
